createdAt,value
2023-02-27T00:01:46.464Z,5.80
2023-02-27T00:04:15.241Z,4.50
2023-02-27T00:06:43.528Z,5.80
2023-02-27T00:09:11.694Z,5.10
2023-02-27T00:11:40.484Z,8.00
2023-02-27T00:14:08.760Z,4.90
2023-02-27T00:16:37.136Z,4.70
2023-02-27T00:19:05.312Z,5.00
2023-02-27T00:21:36.509Z,5.00
2023-02-27T00:24:05.770Z,5.20
2023-02-27T00:26:33.940Z,5.70
2023-02-27T00:29:02.421Z,5.60
2023-02-27T00:31:31.207Z,5.50
2023-02-27T00:34:00.196Z,5.50
2023-02-27T00:36:28.505Z,6.10
2023-02-27T00:38:56.732Z,5.70
2023-02-27T00:41:27.015Z,5.20
2023-02-27T00:43:55.477Z,5.30
2023-02-27T00:46:23.926Z,5.80
2023-02-27T00:48:52.710Z,4.60
2023-02-27T00:51:22.127Z,5.60
2023-02-27T00:53:50.282Z,5.80
2023-02-27T00:56:18.662Z,4.50
2023-02-27T00:58:46.949Z,4.20
2023-02-27T01:01:15.557Z,4.00
2023-02-27T01:03:44.211Z,4.60
2023-02-27T01:06:12.484Z,4.40
2023-02-27T01:08:40.757Z,4.40
2023-02-27T01:11:09.140Z,4.60
2023-02-27T01:13:37.312Z,4.40
2023-02-27T01:16:06.028Z,4.10
2023-02-27T01:18:34.377Z,4.50
2023-02-27T01:21:02.554Z,4.40
2023-02-27T01:23:30.936Z,7.10
2023-02-27T01:25:59.307Z,4.40
2023-02-27T01:28:28.403Z,4.80
2023-02-27T01:30:56.488Z,4.50
2023-02-27T01:33:24.756Z,4.50
2023-02-27T01:35:52.940Z,4.60
2023-02-27T01:38:21.215Z,5.30
2023-02-27T01:40:49.377Z,6.20
2023-02-27T01:43:20.513Z,4.80
2023-02-27T01:45:49.560Z,5.20
2023-02-27T01:48:25.159Z,5.10
2023-02-27T01:51:03.784Z,6.00
2023-02-27T01:53:36.145Z,6.10
2023-02-27T01:56:12.830Z,5.80
2023-02-27T01:58:42.841Z,5.70
2023-02-27T02:01:11.530Z,5.40
2023-02-27T02:03:58.751Z,6.10
2023-02-27T02:06:29.895Z,5.60
2023-02-27T02:08:59.887Z,5.60
2023-02-27T02:11:29.103Z,6.00
2023-02-27T02:14:00.582Z,6.60
2023-02-27T02:16:37.553Z,7.10
2023-02-27T02:19:28.025Z,6.70
2023-02-27T02:22:14.731Z,7.60
2023-02-27T02:25:04.855Z,6.60
2023-02-27T02:27:33.099Z,6.50
2023-02-27T02:30:29.403Z,5.70
2023-02-27T02:33:00.782Z,5.80
2023-02-27T02:36:06.842Z,6.20
2023-02-27T02:39:02.968Z,5.50
2023-02-27T02:41:40.359Z,4.90
2023-02-27T02:44:46.116Z,5.40
2023-02-27T02:47:20.656Z,4.90
2023-02-27T02:50:09.294Z,4.80
2023-02-27T02:52:59.127Z,4.10
2023-02-27T02:55:33.043Z,5.10
2023-02-27T02:58:21.945Z,4.70
2023-02-27T03:00:56.050Z,5.00
2023-02-27T03:03:36.307Z,5.60
2023-02-27T03:06:11.721Z,4.60
2023-02-27T03:08:47.309Z,4.50
2023-02-27T03:11:15.778Z,5.10
2023-02-27T03:13:53.276Z,5.00
2023-02-27T03:16:28.182Z,5.00
2023-02-27T03:19:12.184Z,5.00
2023-02-27T03:21:48.507Z,5.20
2023-02-27T03:24:42.286Z,5.40
2023-02-27T03:27:12.511Z,9.10
2023-02-27T03:29:52.246Z,15.70
2023-02-27T03:32:50.324Z,19.20
2023-02-27T03:35:19.113Z,22.60
2023-02-27T03:37:59.577Z,5.40
2023-02-27T03:40:40.062Z,4.30
2023-02-27T03:43:08.412Z,4.60
2023-02-27T03:46:10.292Z,4.30
2023-02-27T03:48:44.628Z,4.70
2023-02-27T03:51:17.678Z,5.00
2023-02-27T03:54:11.253Z,4.30
2023-02-27T03:56:46.536Z,5.10
2023-02-27T03:59:15.488Z,4.90
2023-02-27T04:01:48.102Z,4.50
2023-02-27T04:04:18.551Z,4.90
2023-02-27T04:07:53.320Z,5.00
2023-02-27T04:10:35.453Z,4.70
2023-02-27T04:13:09.565Z,4.80
2023-02-27T04:15:47.706Z,8.30
2023-02-27T04:18:46.938Z,6.80
2023-02-27T04:21:42.563Z,5.20
2023-02-27T04:24:38.070Z,5.40
2023-02-27T04:27:24.779Z,5.50
2023-02-27T04:30:13.439Z,5.00
2023-02-27T04:33:00.757Z,4.20
2023-02-27T04:35:41.323Z,4.60
2023-02-27T04:38:20.759Z,5.10
2023-02-27T04:40:55.975Z,4.80
2023-02-27T04:43:26.737Z,4.80
2023-02-27T04:45:58.115Z,5.20
2023-02-27T04:48:32.986Z,4.50
2023-02-27T04:51:11.422Z,5.20
2023-02-27T04:53:58.854Z,4.80
2023-02-27T04:56:34.018Z,5.90
2023-02-27T04:59:08.579Z,5.40
2023-02-27T05:01:45.046Z,5.00
2023-02-27T05:04:16.012Z,5.60
2023-02-27T05:06:47.612Z,6.50
2023-02-27T05:09:47.287Z,5.90
2023-02-27T05:12:24.670Z,5.20
2023-02-27T05:15:03.293Z,5.10
2023-02-27T05:17:54.191Z,5.20
2023-02-27T05:20:29.772Z,6.30
2023-02-27T05:23:12.771Z,5.50
2023-02-27T05:25:59.689Z,5.10
2023-02-27T05:28:42.641Z,4.70
2023-02-27T05:31:23.717Z,4.60
2023-02-27T05:34:08.951Z,4.60
2023-02-27T05:36:46.110Z,5.80
2023-02-27T05:39:19.535Z,4.80
2023-02-27T05:41:54.931Z,6.30
2023-02-27T05:44:29.230Z,5.40
2023-02-27T05:47:02.143Z,5.70
2023-02-27T05:49:56.875Z,5.90
2023-02-27T05:52:28.694Z,5.30
2023-02-27T05:55:35.404Z,7.90
2023-02-27T05:58:27.467Z,5.60
2023-02-27T06:00:59.933Z,6.30
2023-02-27T06:03:31.597Z,5.90
2023-02-27T06:06:02.916Z,9.00
2023-02-27T06:08:31.300Z,6.10
2023-02-27T06:10:59.673Z,5.50
2023-02-27T06:13:27.843Z,6.20
2023-02-27T06:15:56.228Z,7.00
2023-02-27T06:18:24.712Z,8.70
2023-02-27T06:20:53.187Z,8.90
2023-02-27T06:23:21.358Z,10.80
2023-02-27T06:25:50.250Z,9.60
2023-02-27T06:28:18.726Z,11.90
2023-02-27T06:30:46.918Z,8.10
2023-02-27T06:33:15.291Z,9.00
2023-02-27T06:35:43.989Z,8.20
2023-02-27T06:38:12.172Z,8.60
2023-02-27T06:40:40.721Z,7.60
2023-02-27T06:43:09.511Z,8.20
2023-02-27T06:45:37.778Z,7.50
2023-02-27T06:48:06.573Z,7.00
2023-02-27T06:50:34.832Z,6.60
2023-02-27T06:53:03.428Z,6.60
2023-02-27T06:55:31.602Z,7.30
2023-02-27T06:57:59.880Z,7.40
2023-02-27T07:00:29.483Z,6.90
2023-02-27T07:02:57.661Z,7.20
2023-02-27T07:05:26.093Z,7.70
2023-02-27T07:07:54.615Z,9.50
2023-02-27T07:10:22.891Z,13.70
2023-02-27T07:12:51.287Z,10.30
2023-02-27T07:15:19.651Z,14.70
2023-02-27T07:17:47.932Z,12.90
2023-02-27T07:20:16.200Z,11.40
2023-02-27T07:22:45.141Z,15.50
2023-02-27T07:25:13.368Z,17.10
2023-02-27T07:27:41.643Z,16.90
2023-02-27T07:30:10.946Z,15.20
2023-02-27T07:32:39.117Z,12.10
2023-02-27T07:35:08.917Z,12.90
2023-02-27T07:37:37.208Z,10.20
2023-02-27T07:40:07.727Z,11.40
2023-02-27T07:42:35.914Z,14.20
2023-02-27T07:45:05.134Z,14.20
2023-02-27T07:47:33.697Z,14.10
2023-02-27T07:50:01.969Z,15.20
2023-02-27T07:55:03.443Z,12.20
2023-02-27T07:57:32.025Z,17.60
2023-02-27T08:00:00.409Z,18.30
2023-02-27T08:02:28.712Z,20.10
2023-02-27T08:04:56.886Z,20.60
2023-02-27T08:07:25.535Z,20.10
2023-02-27T08:09:54.117Z,16.60
2023-02-27T08:12:22.550Z,17.10
2023-02-27T08:14:50.884Z,17.20
2023-02-27T08:17:19.052Z,18.50
2023-02-27T08:19:47.222Z,17.80
2023-02-27T08:22:15.498Z,15.40
2023-02-27T08:24:43.774Z,19.90
2023-02-27T08:27:12.052Z,13.90
2023-02-27T08:29:40.219Z,18.40
2023-02-27T08:32:08.505Z,18.70
2023-02-27T08:34:37.085Z,14.60
2023-02-27T08:37:05.681Z,17.50
2023-02-27T08:39:34.151Z,15.90
2023-02-27T08:42:02.310Z,16.80
2023-02-27T08:44:30.485Z,12.80
2023-02-27T08:46:58.663Z,11.70
2023-02-27T08:49:26.831Z,12.50
2023-02-27T08:51:55.314Z,14.00
2023-02-27T08:54:23.490Z,13.00
2023-02-27T08:56:51.660Z,16.80
2023-02-27T08:59:19.837Z,12.80
2023-02-27T09:01:48.113Z,15.20
2023-02-27T09:04:16.491Z,12.60
2023-02-27T09:06:44.764Z,14.70
2023-02-27T09:09:13.043Z,18.00
2023-02-27T09:11:41.419Z,13.00
2023-02-27T09:14:09.594Z,15.70
2023-02-27T09:16:38.461Z,14.50
2023-02-27T09:19:07.183Z,16.80
2023-02-27T09:21:37.523Z,13.80
2023-02-27T09:24:18.696Z,18.10
2023-02-27T09:26:49.485Z,21.00
2023-02-27T09:29:19.015Z,17.60
2023-02-27T09:31:47.595Z,18.50
2023-02-27T09:34:15.981Z,19.30
2023-02-27T09:36:44.348Z,24.20
2023-02-27T09:39:12.524Z,17.00
2023-02-27T09:41:50.892Z,20.30
2023-02-27T09:44:46.771Z,13.50
2023-02-27T09:47:28.313Z,17.60
2023-02-27T09:49:59.495Z,15.90
2023-02-27T09:52:30.123Z,19.30
2023-02-27T09:54:59.138Z,22.60
2023-02-27T09:57:53.384Z,28.50
2023-02-27T10:00:27.989Z,19.50
2023-02-27T10:03:17.541Z,18.90
2023-02-27T10:06:06.810Z,15.50
2023-02-27T10:08:44.567Z,17.30
2023-02-27T10:11:18.128Z,14.60
2023-02-27T10:14:16.960Z,12.20
2023-02-27T10:16:49.714Z,9.70
2023-02-27T10:19:31.840Z,10.90
2023-02-27T10:22:04.824Z,12.80
2023-02-27T10:24:41.602Z,11.20
2023-02-27T10:27:17.353Z,8.40
2023-02-27T10:29:46.654Z,8.90
2023-02-27T10:32:34.459Z,12.70
2023-02-27T10:35:31.473Z,9.00
2023-02-27T10:38:03.075Z,9.10
2023-02-27T10:40:35.321Z,7.30
2023-02-27T10:43:06.443Z,8.30
2023-02-27T10:45:36.974Z,6.30
2023-02-27T10:48:06.768Z,7.90
2023-02-27T10:50:40.050Z,8.40
2023-02-27T10:53:19.290Z,10.60
2023-02-27T10:55:58.906Z,10.50
2023-02-27T10:58:34.626Z,8.70
2023-02-27T11:01:09.361Z,7.70
2023-02-27T11:03:41.524Z,8.50
2023-02-27T11:06:22.943Z,10.90
2023-02-27T11:09:22.556Z,10.90
2023-02-27T11:11:51.644Z,9.40
2023-02-27T11:14:19.830Z,10.90
2023-02-27T11:17:03.459Z,8.40
2023-02-27T11:19:40.333Z,7.30
2023-02-27T11:22:24.363Z,6.80
2023-02-27T11:25:10.057Z,6.60
2023-02-27T11:27:38.231Z,6.70
2023-02-27T11:30:22.737Z,6.90
2023-02-27T11:32:52.189Z,10.60
2023-02-27T11:35:37.096Z,9.70
2023-02-27T11:38:18.404Z,7.80
2023-02-27T11:40:53.475Z,7.20
2023-02-27T11:43:23.801Z,7.30
2023-02-27T11:46:04.429Z,7.10
2023-02-27T11:49:21.712Z,8.70
2023-02-27T11:52:14.550Z,6.50
2023-02-27T11:54:53.475Z,6.00
2023-02-27T11:57:33.311Z,7.00
2023-02-27T12:00:27.352Z,5.30
2023-02-27T12:03:04.644Z,6.00
2023-02-27T12:05:40.483Z,6.10
2023-02-27T12:08:14.796Z,7.10
2023-02-27T12:11:07.839Z,5.10
2023-02-27T12:13:47.083Z,5.20
2023-02-27T12:16:34.195Z,4.20
2023-02-27T12:19:18.510Z,5.20
2023-02-27T12:21:56.920Z,12.20
2023-02-27T12:24:39.334Z,5.90
2023-02-27T12:27:20.501Z,6.60
2023-02-27T12:29:53.903Z,5.50
2023-02-27T12:32:31.676Z,6.50
2023-02-27T12:35:02.351Z,6.00
2023-02-27T12:37:33.747Z,5.90
2023-02-27T12:40:09.496Z,6.20
2023-02-27T12:43:11.610Z,5.00
2023-02-27T12:46:19.336Z,6.10
2023-02-27T12:49:09.463Z,6.20
2023-02-27T12:51:47.417Z,5.10
2023-02-27T12:54:38.831Z,6.00
2023-02-27T12:57:15.684Z,5.30
2023-02-27T13:00:09.528Z,5.60
2023-02-27T13:02:52.806Z,5.10
2023-02-27T13:08:05.434Z,5.30
2023-02-27T13:10:42.708Z,9.90
2023-02-27T13:13:22.867Z,5.20
2023-02-27T13:15:59.661Z,5.80
2023-02-27T13:18:46.664Z,5.30
2023-02-27T13:22:16.986Z,5.30
2023-02-27T13:24:50.077Z,4.30
2023-02-27T13:30:04.138Z,4.10
2023-02-27T13:32:44.857Z,5.00
2023-02-27T13:35:28.275Z,5.10
2023-02-27T13:38:24.673Z,4.20
2023-02-27T13:40:53.150Z,4.20
2023-02-27T13:43:27.468Z,5.70
2023-02-27T13:46:24.520Z,5.00
2023-02-27T13:49:26.961Z,5.70
2023-02-27T13:52:00.590Z,4.70
2023-02-27T13:54:34.385Z,4.40
2023-02-27T13:57:07.391Z,6.60
2023-02-27T13:59:41.529Z,4.50
2023-02-27T14:02:12.999Z,4.30
2023-02-27T14:04:52.291Z,5.00
2023-02-27T14:07:24.133Z,4.30
2023-02-27T14:10:06.255Z,4.40
2023-02-27T14:12:46.458Z,4.50
2023-02-27T14:15:17.965Z,4.40
2023-02-27T14:17:49.669Z,4.70
2023-02-27T14:20:29.452Z,5.50
2023-02-27T14:23:16.021Z,4.60
2023-02-27T14:25:54.980Z,5.30
2023-02-27T14:28:42.336Z,4.20
2023-02-27T14:31:32.711Z,4.40
2023-02-27T14:34:06.105Z,4.80
2023-02-27T14:36:46.259Z,4.00
2023-02-27T14:39:35.933Z,4.90
2023-02-27T14:42:04.139Z,5.20
2023-02-27T14:44:43.751Z,4.10
2023-02-27T14:47:18.261Z,4.70
2023-02-27T14:49:47.985Z,4.60
2023-02-27T14:52:31.696Z,4.40
2023-02-27T14:55:31.533Z,4.20
2023-02-27T14:58:09.110Z,4.50
2023-02-27T15:00:55.735Z,5.90
2023-02-27T15:03:34.693Z,6.20
2023-02-27T15:06:12.459Z,5.20
2023-02-27T15:08:42.587Z,4.90
2023-02-27T15:11:15.565Z,5.90
2023-02-27T15:13:44.767Z,6.60
2023-02-27T15:16:25.277Z,5.20
2023-02-27T15:18:59.268Z,5.60
2023-02-27T15:21:32.419Z,4.30
2023-02-27T15:26:35.838Z,6.90
2023-02-27T15:29:09.037Z,3.80
2023-02-27T15:34:14.114Z,5.00
2023-02-27T15:36:55.142Z,4.10
2023-02-27T15:39:29.145Z,4.10
2023-02-27T15:42:01.984Z,4.00
2023-02-27T15:44:42.106Z,3.90
2023-02-27T15:47:13.895Z,4.70
2023-02-27T15:49:43.052Z,5.30
2023-02-27T15:52:21.068Z,4.20
2023-02-27T15:55:05.277Z,3.90
2023-02-27T15:57:33.795Z,4.10
2023-02-27T16:00:02.419Z,3.70
2023-02-27T16:02:50.348Z,4.00
2023-02-27T16:05:21.498Z,5.50
2023-02-27T16:07:50.750Z,4.70
2023-02-27T16:10:23.335Z,4.90
2023-02-27T16:12:51.549Z,5.30
2023-02-27T16:15:22.438Z,4.90
2023-02-27T16:17:53.790Z,5.80
2023-02-27T16:20:41.208Z,5.50
2023-02-27T16:23:20.768Z,4.90
2023-02-27T16:26:21.589Z,5.80
2023-02-27T16:29:22.337Z,5.30
2023-02-27T16:31:56.121Z,4.90
2023-02-27T16:34:46.464Z,6.00
2023-02-27T16:37:27.297Z,6.20
2023-02-27T16:39:55.469Z,7.10
2023-02-27T16:42:23.756Z,5.60
2023-02-27T16:44:51.923Z,6.10
2023-02-27T16:47:20.092Z,6.70
2023-02-27T16:49:49.630Z,6.90
2023-02-27T16:52:17.978Z,6.40
2023-02-27T16:54:46.249Z,5.70
2023-02-27T16:57:14.631Z,6.40
2023-02-27T16:59:44.243Z,6.90
2023-02-27T17:02:15.174Z,6.10
2023-02-27T17:04:44.734Z,5.80
2023-02-27T17:07:15.935Z,5.00
2023-02-27T17:09:45.966Z,4.80
2023-02-27T17:12:14.427Z,4.60
2023-02-27T17:14:42.801Z,5.20
2023-02-27T17:17:11.673Z,4.80
2023-02-27T17:19:39.865Z,5.00
2023-02-27T17:22:08.250Z,5.00
2023-02-27T17:24:37.241Z,4.40
2023-02-27T17:27:06.029Z,4.30
2023-02-27T17:29:34.390Z,5.00
2023-02-27T17:32:02.924Z,4.50
2023-02-27T17:34:31.166Z,4.60
2023-02-27T17:36:59.445Z,5.00
2023-02-27T17:39:27.915Z,5.60
2023-02-27T17:41:56.192Z,6.10
2023-02-27T17:44:24.467Z,5.90
2023-02-27T17:46:52.847Z,5.90
2023-02-27T17:49:21.020Z,9.20
2023-02-27T17:51:49.298Z,6.20
2023-02-27T17:54:17.689Z,6.10
2023-02-27T17:56:46.053Z,6.60
2023-02-27T17:59:14.233Z,7.80
2023-02-27T18:01:42.535Z,7.10
2023-02-27T18:04:13.157Z,7.60
2023-02-27T18:06:42.022Z,8.00
2023-02-27T18:09:11.115Z,8.00
2023-02-27T18:11:39.494Z,8.00
2023-02-27T18:14:07.693Z,9.90
2023-02-27T18:16:36.454Z,7.90
2023-02-27T18:19:06.586Z,8.50
2023-02-27T18:21:35.713Z,8.80
2023-02-27T18:24:05.178Z,9.30
2023-02-27T18:26:34.413Z,8.80
2023-02-27T18:29:09.428Z,14.00
2023-02-27T18:31:44.344Z,15.30
2023-02-27T18:34:13.339Z,13.40
2023-02-27T18:36:42.119Z,11.20
2023-02-27T18:39:11.421Z,9.60
2023-02-27T18:41:40.177Z,9.50
2023-02-27T18:44:08.791Z,10.70
2023-02-27T18:46:38.952Z,8.50
2023-02-27T18:49:08.249Z,8.00
2023-02-27T18:51:36.792Z,9.60
2023-02-27T18:54:07.089Z,10.00
2023-02-27T18:56:35.292Z,12.30
2023-02-27T18:59:05.504Z,7.70
2023-02-27T19:01:36.942Z,7.50
2023-02-27T19:04:07.591Z,7.60
2023-02-27T19:06:40.950Z,7.50
2023-02-27T19:09:12.267Z,7.10
2023-02-27T19:11:40.506Z,8.90
2023-02-27T19:14:12.134Z,8.40
2023-02-27T19:16:40.916Z,9.60
2023-02-27T19:19:10.041Z,9.10
2023-02-27T19:21:38.655Z,9.10
2023-02-27T19:24:08.136Z,8.40
2023-02-27T19:26:36.414Z,8.60
2023-02-27T19:29:06.019Z,7.60
2023-02-27T19:31:34.657Z,9.80
2023-02-27T19:34:03.407Z,9.10
2023-02-27T19:36:32.392Z,9.00
2023-02-27T19:39:00.655Z,11.00
2023-02-27T19:41:30.776Z,9.50
2023-02-27T19:44:00.592Z,9.40
2023-02-27T19:46:31.838Z,9.30
2023-02-27T19:49:04.513Z,10.00
2023-02-27T19:51:33.520Z,10.90
2023-02-27T19:54:01.801Z,10.40
2023-02-27T19:56:31.212Z,11.60
2023-02-27T19:59:00.904Z,10.80
2023-02-27T20:01:36.298Z,9.60
2023-02-27T20:04:06.466Z,10.50
2023-02-27T20:06:44.101Z,10.00
2023-02-27T20:09:18.051Z,9.50
2023-02-27T20:11:48.752Z,19.60
2023-02-27T20:14:17.485Z,9.40
2023-02-27T20:16:46.222Z,10.00
2023-02-27T20:19:18.769Z,10.80
2023-02-27T20:21:48.024Z,12.50
2023-02-27T20:24:18.364Z,14.60
2023-02-27T20:26:48.852Z,14.00
2023-02-27T20:29:23.003Z,10.30
2023-02-27T20:31:52.843Z,12.80
2023-02-27T20:34:26.471Z,12.00
2023-02-27T20:36:56.228Z,9.50
2023-02-27T20:39:25.232Z,9.60
2023-02-27T20:41:53.597Z,10.80
2023-02-27T20:44:21.876Z,9.30
2023-02-27T20:46:50.150Z,11.30
2023-02-27T20:49:18.637Z,9.30
2023-02-27T20:51:46.907Z,9.90
2023-02-27T20:54:20.698Z,11.00
2023-02-27T20:56:54.531Z,9.40
2023-02-27T20:59:25.372Z,10.00
2023-02-27T21:01:54.748Z,8.20
2023-02-27T21:04:42.633Z,9.70
2023-02-27T21:07:16.893Z,10.10
2023-02-27T21:09:45.515Z,9.30
2023-02-27T21:12:13.990Z,9.40
2023-02-27T21:14:44.524Z,8.50
2023-02-27T21:17:14.010Z,9.60
2023-02-27T21:19:42.285Z,8.00
2023-02-27T21:22:11.396Z,9.80
2023-02-27T21:24:39.663Z,10.60
2023-02-27T21:27:08.032Z,9.10
2023-02-27T21:29:36.614Z,9.60
2023-02-27T21:32:04.954Z,11.30
2023-02-27T21:34:33.188Z,11.80
2023-02-27T21:37:06.378Z,9.30
2023-02-27T21:39:34.636Z,11.90
2023-02-27T21:42:03.098Z,9.40
2023-02-27T21:44:32.200Z,12.20
2023-02-27T21:47:08.319Z,12.00
2023-02-27T21:49:37.168Z,9.60
2023-02-27T21:52:05.782Z,12.40
2023-02-27T21:54:34.015Z,12.50
2023-02-27T21:57:03.417Z,11.50
2023-02-27T21:59:32.011Z,11.40
2023-02-27T22:02:00.269Z,11.60
2023-02-27T22:04:28.662Z,8.90
2023-02-27T22:06:57.136Z,11.40
2023-02-27T22:09:25.311Z,11.40
2023-02-27T22:11:53.692Z,13.60
2023-02-27T22:14:21.864Z,11.40
2023-02-27T22:16:50.248Z,12.40
2023-02-27T22:19:20.124Z,14.90
2023-02-27T22:21:48.552Z,13.50
2023-02-27T22:24:16.822Z,12.60
2023-02-27T22:26:45.875Z,11.10
2023-02-27T22:29:14.087Z,11.50
2023-02-27T22:31:42.391Z,9.40
2023-02-27T22:34:14.054Z,11.60
2023-02-27T22:36:42.496Z,8.90
2023-02-27T22:39:11.699Z,8.40
2023-02-27T22:41:42.129Z,8.90
2023-02-27T22:44:13.678Z,8.70
2023-02-27T22:46:48.161Z,9.20
2023-02-27T22:49:21.612Z,9.30
2023-02-27T22:51:52.144Z,8.90
2023-02-27T22:54:22.830Z,8.70
2023-02-27T22:56:53.231Z,7.20
2023-02-27T22:59:22.275Z,8.00
2023-02-27T23:01:51.498Z,7.30
2023-02-27T23:04:22.305Z,7.30
2023-02-27T23:06:52.675Z,9.10
2023-02-27T23:09:24.540Z,9.60
2023-02-27T23:11:54.268Z,8.90
2023-02-27T23:14:22.462Z,9.00
2023-02-27T23:16:51.648Z,8.00
2023-02-27T23:19:21.182Z,8.00
2023-02-27T23:21:49.444Z,10.80
2023-02-27T23:24:18.840Z,8.80
2023-02-27T23:26:49.329Z,11.00
2023-02-27T23:29:17.443Z,9.50
2023-02-27T23:31:45.743Z,9.20
2023-02-27T23:34:14.312Z,8.80
2023-02-27T23:36:42.602Z,9.70
2023-02-27T23:39:10.856Z,9.80
2023-02-27T23:41:39.544Z,9.10
2023-02-27T23:44:07.722Z,10.50
2023-02-27T23:46:35.885Z,9.30
2023-02-27T23:49:04.161Z,8.80
2023-02-27T23:51:33.624Z,9.20
2023-02-27T23:54:02.271Z,10.80
2023-02-27T23:56:30.945Z,8.90
2023-02-27T23:59:01.920Z,8.70
